地図

経路データ

SID SEASON NUMBER BASIN SUBBASIN NAME ISO_TIME NATURE LAT LON WMO_WIND WMO_PRES WMO_AGENCY TRACK_TYPE DIST2LAND LANDFALL IFLAG USA_AGENCY USA_ATCF_ID USA_LAT USA_LON USA_RECORD USA_STATUS USA_WIND USA_PRES USA_SSHS USA_R34_NE USA_R34_SE USA_R34_SW USA_R34_NW USA_R50_NE USA_R50_SE USA_R50_SW USA_R50_NW USA_R64_NE USA_R64_SE USA_R64_SW USA_R64_NW USA_POCI USA_ROCI USA_RMW USA_EYE TOKYO_LAT TOKYO_LON TOKYO_GRADE TOKYO_WIND TOKYO_PRES TOKYO_R50_DIR TOKYO_R50_LONG TOKYO_R50_SHORT TOKYO_R30_DIR TOKYO_R30_LONG TOKYO_R30_SHORT TOKYO_LAND CMA_LAT CMA_LON CMA_CAT CMA_WIND CMA_PRES HKO_LAT HKO_LON HKO_CAT HKO_WIND HKO_PRES NEWDELHI_LAT NEWDELHI_LON NEWDELHI_GRADE NEWDELHI_WIND NEWDELHI_PRES NEWDELHI_CI NEWDELHI_DP NEWDELHI_POCI REUNION_LAT REUNION_LON REUNION_TYPE REUNION_WIND REUNION_PRES REUNION_TNUM REUNION_CI REUNION_RMW REUNION_R34_NE REUNION_R34_SE REUNION_R34_SW REUNION_R34_NW REUNION_R50_NE REUNION_R50_SE REUNION_R50_SW REUNION_R50_NW REUNION_R64_NE REUNION_R64_SE REUNION_R64_SW REUNION_R64_NW BOM_LAT BOM_LON BOM_TYPE BOM_WIND BOM_PRES BOM_TNUM BOM_CI BOM_RMW BOM_R34_NE BOM_R34_SE BOM_R34_SW BOM_R34_NW BOM_R50_NE BOM_R50_SE BOM_R50_SW BOM_R50_NW BOM_R64_NE BOM_R64_SE BOM_R64_SW BOM_R64_NW BOM_ROCI BOM_POCI BOM_EYE BOM_POS_METHOD BOM_PRES_METHOD NADI_LAT NADI_LON NADI_CAT NADI_WIND NADI_PRES WELLINGTON_LAT WELLINGTON_LON WELLINGTON_WIND WELLINGTON_PRES DS824_LAT DS824_LON DS824_STAGE DS824_WIND DS824_PRES TD9636_LAT TD9636_LON TD9636_STAGE TD9636_WIND TD9636_PRES TD9635_LAT TD9635_LON TD9635_WIND TD9635_PRES TD9635_ROCI NEUMANN_LAT NEUMANN_LON NEUMANN_CLASS NEUMANN_WIND NEUMANN_PRES MLC_LAT MLC_LON MLC_CLASS MLC_WIND MLC_PRES USA_GUST BOM_GUST BOM_GUST_PER REUNION_GUST REUNION_GUST_PER USA_SEAHGT USA_SEARAD_NE USA_SEARAD_SE USA_SEARAD_SW USA_SEARAD_NW STORM_SPEED STORM_DIR
1986245N18274 1986 89 NA CS NOT_NAMED 1986-09-01 12:00:00 TS 17.6000 -86.2000 20 hurdat_atl main 182 95 O_____________ hurdat_atl AL071986 17.6000 -86.2000 TD 20 -1 17 283
1986245N18274 1986 89 NA CS NOT_NAMED 1986-09-01 15:00:00 TS 17.7912 -87.0646 main 86 22 P_____________ AL071986 17.7912 -87.0646 TD 20 -1 16 285
1986245N18274 1986 89 NA CS NOT_NAMED 1986-09-01 18:00:00 TS 18.0000 -87.8000 20 hurdat_atl main 22 0 O_____________ hurdat_atl AL071986 18.0000 -87.8000 TD 20 -1 13 291
1986245N18274 1986 89 NA NA NOT_NAMED 1986-09-01 21:00:00 TS 18.2418 -88.3303 main 0 0 P_____________ AL071986 18.2418 -88.3303 TD 20 -1 11 298
1986245N18274 1986 89 NA NA NOT_NAMED 1986-09-02 00:00:00 TS 18.5000 -88.8000 20 hurdat_atl main 0 0 O_____________ hurdat_atl AL071986 18.5000 -88.8000 TD 20 -1 11 298
1986245N18274 1986 89 NA NA NOT_NAMED 1986-09-02 03:00:00 TS 18.7726 -89.3998 main 0 0 P_____________ AL071986 18.7726 -89.3998 TD 20 -1 12 294
1986245N18274 1986 89 NA NA NOT_NAMED 1986-09-02 06:00:00 TS 19.0000 -90.0000 20 hurdat_atl main 0 0 O_____________ hurdat_atl AL071986 19.0000 -90.0000 TD 20 -1 11 287
1986245N18274 1986 89 NA NA NOT_NAMED 1986-09-02 09:00:00 TS 19.0997 -90.5155 main 0 0 P_____________ AL071986 19.0997 -90.5155 TD 22 -1 10 282
1986245N18274 1986 89 NA GM NOT_NAMED 1986-09-02 12:00:00 TS 19.2000 -91.0000 25 hurdat_atl main 0 0 O_____________ hurdat_atl AL071986 19.2000 -91.0000 TD 25 -1 10 290
1986245N18274 1986 89 NA GM NOT_NAMED 1986-09-02 15:00:00 TS 19.4424 -91.4998 main 49 49 P_____________ AL071986 19.4424 -91.4998 TD 25 -1 11 298
1986245N18274 1986 89 NA GM NOT_NAMED 1986-09-02 18:00:00 TS 19.7000 -92.0000 25 hurdat_atl main 103 103 O_____________ hurdat_atl AL071986 19.7000 -92.0000 TD 25 -1 10 295
1986245N18274 1986 89 NA GM NOT_NAMED 1986-09-02 21:00:00 TS 19.8724 -92.5002 main 145 145 P_____________ AL071986 19.8724 -92.5002 TD 25 -1 10 288
1986245N18274 1986 89 NA GM NOT_NAMED 1986-09-03 00:00:00 TS 20.0000 -93.0000 25 hurdat_atl main 159 159 O_____________ hurdat_atl AL071986 20.0000 -93.0000 TD 25 -1 10 283
1986245N18274 1986 89 NA GM NOT_NAMED 1986-09-03 03:00:00 TS 20.0849 -93.5004 main 187 187 P_____________ AL071986 20.0849 -93.5004 TD 27 -1 10 282
1986245N18274 1986 89 NA GM NOT_NAMED 1986-09-03 06:00:00 TS 20.2000 -94.0000 30 hurdat_atl main 207 202 O_____________ hurdat_atl AL071986 20.2000 -94.0000 TD 30 -1 10 291
1986245N18274 1986 89 NA GM NOT_NAMED 1986-09-03 09:00:00 TS 20.4348 -94.4924 main 203 171 P_____________ AL071986 20.4348 -94.4924 TD 30 -1 11 298
1986245N18274 1986 89 NA GM NOT_NAMED 1986-09-03 12:00:00 TS 20.7000 -95.0000 30 hurdat_atl main 171 144 O_____________ hurdat_atl AL071986 20.7000 -95.0000 TD 30 -1 11 294
1986245N18274 1986 89 NA GM NOT_NAMED 1986-09-03 15:00:00 TS 20.8850 -95.5504 main 137 114 P_____________ AL071986 20.8850 -95.5504 TD 30 -1 11 291
1986245N18274 1986 89 NA GM NOT_NAMED 1986-09-03 18:00:00 TS 21.1000 -96.1000 30 hurdat_atl main 114 75 O_____________ hurdat_atl AL071986 21.1000 -96.1000 TD 30 -1 11 300
1986245N18274 1986 89 NA GM NOT_NAMED 1986-09-03 21:00:00 TS 21.4573 -96.6147 main 73 30 P_____________ AL071986 21.4573 -96.6147 TD 27 -1 12 307
1986245N18274 1986 89 NA GM NOT_NAMED 1986-09-04 00:00:00 TS 21.8000 -97.1000 25 hurdat_atl main 30 10 O_____________ hurdat_atl AL071986 21.8000 -97.1000 TD 25 -1 10 299
1986245N18274 1986 89 NA GM NOT_NAMED 1986-09-04 03:00:00 TS 21.9422 -97.5508 main 0 0 P_____________ AL071986 21.9422 -97.5508 TD 25 -1 9 290
1986245N18274 1986 89 NA NA NOT_NAMED 1986-09-04 06:00:00 TS 22.1000 -98.0000 25 hurdat_atl main 0 0 O_____________ hurdat_atl AL071986 22.1000 -98.0000 TD 25 -1 10 300
1986245N18274 1986 89 NA NA NOT_NAMED 1986-09-04 09:00:00 TS 22.4404 -98.4864 main 0 0 P_____________ AL071986 22.4404 -98.4864 TD -1 12 311
1986245N18274 1986 89 NA NA NOT_NAMED 1986-09-04 12:00:00 TS 22.9000 -99.0000 hurdat_atl main 0 O_____________ hurdat_atl AL071986 22.9000 -99.0000 TD -1 13 314

IBTrACS Databaseについて

本データベースは、米国NOAAが公開する1842年以降の世界の熱帯低気圧のベストトラックデータアーカイブInternational Best Track Archive for Climate Stewardship (IBTrACS)を、ウェブで閲覧しやすい形式に変換したものです。

最終更新日:2021-10-21